sensor_id;sensor_type;location;lat;lon;timestamp;P1;durP1;ratioP1;P2;durP2;ratioP2
25846;SDS011;13676;50.168;8.568;2023-08-17T00:01:52;1.92;;;1.50;;
25846;SDS011;13676;50.168;8.568;2023-08-17T00:04:17;1.70;;;1.30;;
25846;SDS011;13676;50.168;8.568;2023-08-17T00:06:42;1.60;;;1.40;;
25846;SDS011;13676;50.168;8.568;2023-08-17T00:09:08;6.97;;;2.50;;
25846;SDS011;13676;50.168;8.568;2023-08-17T00:11:34;2.65;;;2.22;;
25846;SDS011;13676;50.168;8.568;2023-08-17T00:14:00;4.93;;;2.30;;
25846;SDS011;13676;50.168;8.568;2023-08-17T00:16:25;2.63;;;2.22;;
25846;SDS011;13676;50.168;8.568;2023-08-17T00:18:51;2.88;;;1.80;;
25846;SDS011;13676;50.168;8.568;2023-08-17T00:21:16;1.92;;;1.40;;
25846;SDS011;13676;50.168;8.568;2023-08-17T00:23:41;2.28;;;1.95;;
25846;SDS011;13676;50.168;8.568;2023-08-17T00:26:07;2.75;;;1.67;;
25846;SDS011;13676;50.168;8.568;2023-08-17T00:28:33;3.97;;;1.58;;
25846;SDS011;13676;50.168;8.568;2023-08-17T00:30:59;5.78;;;2.38;;
25846;SDS011;13676;50.168;8.568;2023-08-17T00:33:25;7.87;;;2.30;;
25846;SDS011;13676;50.168;8.568;2023-08-17T00:35:51;2.38;;;2.05;;
25846;SDS011;13676;50.168;8.568;2023-08-17T00:38:16;3.25;;;2.20;;
25846;SDS011;13676;50.168;8.568;2023-08-17T00:40:42;2.72;;;2.17;;
25846;SDS011;13676;50.168;8.568;2023-08-17T00:43:07;3.50;;;1.73;;
25846;SDS011;13676;50.168;8.568;2023-08-17T00:45:32;3.22;;;2.17;;
25846;SDS011;13676;50.168;8.568;2023-08-17T00:47:58;1.52;;;1.20;;
25846;SDS011;13676;50.168;8.568;2023-08-17T00:50:24;2.25;;;2.05;;
25846;SDS011;13676;50.168;8.568;2023-08-17T00:52:51;2.38;;;1.90;;
25846;SDS011;13676;50.168;8.568;2023-08-17T00:55:17;2.95;;;2.42;;
25846;SDS011;13676;50.168;8.568;2023-08-17T00:57:43;3.15;;;2.85;;
25846;SDS011;13676;50.168;8.568;2023-08-17T01:00:09;4.03;;;3.20;;
25846;SDS011;13676;50.168;8.568;2023-08-17T01:02:37;6.93;;;3.80;;
25846;SDS011;13676;50.168;8.568;2023-08-17T01:05:03;3.45;;;3.00;;
25846;SDS011;13676;50.168;8.568;2023-08-17T01:07:31;2.80;;;2.60;;
25846;SDS011;13676;50.168;8.568;2023-08-17T01:09:56;2.80;;;2.33;;
25846;SDS011;13676;50.168;8.568;2023-08-17T01:15:21;2.80;;;2.08;;
25846;SDS011;13676;50.168;8.568;2023-08-17T01:20:37;2.22;;;1.60;;
25846;SDS011;13676;50.168;8.568;2023-08-17T01:23:07;5.80;;;1.77;;
25846;SDS011;13676;50.168;8.568;2023-08-17T01:25:32;2.05;;;1.85;;
25846;SDS011;13676;50.168;8.568;2023-08-17T01:28:04;2.17;;;1.92;;
25846;SDS011;13676;50.168;8.568;2023-08-17T01:30:30;2.10;;;1.90;;
25846;SDS011;13676;50.168;8.568;2023-08-17T01:38:27;2.75;;;1.92;;
25846;SDS011;13676;50.168;8.568;2023-08-17T01:40:54;2.25;;;1.90;;
25846;SDS011;13676;50.168;8.568;2023-08-17T01:43:20;2.40;;;2.00;;
25846;SDS011;13676;50.168;8.568;2023-08-17T01:45:45;5.53;;;1.90;;
25846;SDS011;13676;50.168;8.568;2023-08-17T01:48:11;1.58;;;1.48;;
25846;SDS011;13676;50.168;8.568;2023-08-17T01:50:36;3.83;;;1.60;;
25846;SDS011;13676;50.168;8.568;2023-08-17T01:53:01;1.90;;;1.50;;
25846;SDS011;13676;50.168;8.568;2023-08-17T01:55:28;1.50;;;1.40;;
25846;SDS011;13676;50.168;8.568;2023-08-17T01:57:53;2.00;;;1.23;;
25846;SDS011;13676;50.168;8.568;2023-08-17T02:00:18;2.97;;;0.88;;
25846;SDS011;13676;50.168;8.568;2023-08-17T02:02:45;1.43;;;1.00;;
25846;SDS011;13676;50.168;8.568;2023-08-17T02:05:10;1.10;;;0.90;;
25846;SDS011;13676;50.168;8.568;2023-08-17T02:07:38;1.35;;;1.17;;
25846;SDS011;13676;50.168;8.568;2023-08-17T02:10:04;2.83;;;1.10;;
25846;SDS011;13676;50.168;8.568;2023-08-17T02:12:31;1.52;;;1.10;;
25846;SDS011;13676;50.168;8.568;2023-08-17T02:14:58;2.22;;;1.08;;
25846;SDS011;13676;50.168;8.568;2023-08-17T02:17:24;1.95;;;0.90;;
25846;SDS011;13676;50.168;8.568;2023-08-17T02:19:49;2.35;;;1.17;;
25846;SDS011;13676;50.168;8.568;2023-08-17T02:22:15;1.75;;;1.10;;
25846;SDS011;13676;50.168;8.568;2023-08-17T02:24:40;1.00;;;0.82;;
25846;SDS011;13676;50.168;8.568;2023-08-17T02:27:06;0.95;;;0.85;;
25846;SDS011;13676;50.168;8.568;2023-08-17T02:32:00;1.60;;;1.10;;
25846;SDS011;13676;50.168;8.568;2023-08-17T02:34:26;2.13;;;1.10;;
25846;SDS011;13676;50.168;8.568;2023-08-17T02:36:51;1.55;;;0.95;;
25846;SDS011;13676;50.168;8.568;2023-08-17T02:39:18;2.67;;;0.90;;
25846;SDS011;13676;50.168;8.568;2023-08-17T02:41:43;1.88;;;1.23;;
25846;SDS011;13676;50.168;8.568;2023-08-17T02:44:13;1.10;;;1.00;;
25846;SDS011;13676;50.168;8.568;2023-08-17T02:46:39;1.10;;;1.00;;
25846;SDS011;13676;50.168;8.568;2023-08-17T02:49:04;0.90;;;0.80;;
25846;SDS011;13676;50.168;8.568;2023-08-17T02:51:29;1.48;;;1.08;;
25846;SDS011;13676;50.168;8.568;2023-08-17T02:53:55;1.20;;;1.10;;
25846;SDS011;13676;50.168;8.568;2023-08-17T02:56:20;3.50;;;1.17;;
25846;SDS011;13676;50.168;8.568;2023-08-17T02:58:45;1.80;;;1.02;;
25846;SDS011;13676;50.168;8.568;2023-08-17T03:01:12;0.75;;;0.75;;
25846;SDS011;13676;50.168;8.568;2023-08-17T03:03:37;3.80;;;1.10;;
25846;SDS011;13676;50.168;8.568;2023-08-17T03:06:04;2.28;;;1.00;;
25846;SDS011;13676;50.168;8.568;2023-08-17T03:08:30;1.95;;;1.27;;
25846;SDS011;13676;50.168;8.568;2023-08-17T03:10:57;1.60;;;1.13;;
25846;SDS011;13676;50.168;8.568;2023-08-17T03:13:22;1.23;;;1.13;;
25846;SDS011;13676;50.168;8.568;2023-08-17T03:15:48;1.88;;;1.20;;
25846;SDS011;13676;50.168;8.568;2023-08-17T03:18:13;2.72;;;1.65;;
25846;SDS011;13676;50.168;8.568;2023-08-17T03:20:39;2.35;;;1.60;;
25846;SDS011;13676;50.168;8.568;2023-08-17T03:23:05;1.30;;;1.20;;
25846;SDS011;13676;50.168;8.568;2023-08-17T03:25:32;3.25;;;1.60;;
25846;SDS011;13676;50.168;8.568;2023-08-17T03:27:59;2.35;;;1.42;;
25846;SDS011;13676;50.168;8.568;2023-08-17T03:30:25;0.85;;;0.85;;
25846;SDS011;13676;50.168;8.568;2023-08-17T03:32:50;1.27;;;0.73;;
25846;SDS011;13676;50.168;8.568;2023-08-17T03:35:16;4.50;;;0.98;;
25846;SDS011;13676;50.168;8.568;2023-08-17T03:37:41;3.33;;;1.00;;
25846;SDS011;13676;50.168;8.568;2023-08-17T03:40:06;1.08;;;0.90;;
25846;SDS011;13676;50.168;8.568;2023-08-17T03:42:32;1.45;;;0.85;;
25846;SDS011;13676;50.168;8.568;2023-08-17T03:44:58;5.15;;;1.08;;
25846;SDS011;13676;50.168;8.568;2023-08-17T03:47:23;3.05;;;1.08;;
25846;SDS011;13676;50.168;8.568;2023-08-17T03:49:48;1.80;;;0.90;;
25846;SDS011;13676;50.168;8.568;2023-08-17T03:52:14;1.00;;;0.90;;
25846;SDS011;13676;50.168;8.568;2023-08-17T03:54:39;1.25;;;0.90;;
25846;SDS011;13676;50.168;8.568;2023-08-17T03:57:04;2.88;;;0.90;;
25846;SDS011;13676;50.168;8.568;2023-08-17T03:59:30;1.38;;;0.98;;
25846;SDS011;13676;50.168;8.568;2023-08-17T04:01:55;1.65;;;1.13;;
25846;SDS011;13676;50.168;8.568;2023-08-17T04:04:20;2.35;;;1.10;;
25846;SDS011;13676;50.168;8.568;2023-08-17T04:06:46;1.10;;;1.00;;
25846;SDS011;13676;50.168;8.568;2023-08-17T04:09:11;2.33;;;0.80;;
25846;SDS011;13676;50.168;8.568;2023-08-17T04:11:37;0.82;;;0.82;;
25846;SDS011;13676;50.168;8.568;2023-08-17T04:14:03;0.60;;;0.55;;
25846;SDS011;13676;50.168;8.568;2023-08-17T04:16:29;1.98;;;0.98;;
25846;SDS011;13676;50.168;8.568;2023-08-17T04:18:55;3.90;;;0.98;;
25846;SDS011;13676;50.168;8.568;2023-08-17T04:21:20;0.90;;;0.80;;
25846;SDS011;13676;50.168;8.568;2023-08-17T04:23:46;2.35;;;1.20;;
25846;SDS011;13676;50.168;8.568;2023-08-17T04:26:11;1.45;;;0.90;;
25846;SDS011;13676;50.168;8.568;2023-08-17T04:28:38;0.95;;;0.90;;
25846;SDS011;13676;50.168;8.568;2023-08-17T04:31:04;1.52;;;0.90;;
25846;SDS011;13676;50.168;8.568;2023-08-17T04:33:29;2.42;;;0.93;;
25846;SDS011;13676;50.168;8.568;2023-08-17T04:35:54;0.82;;;0.80;;
25846;SDS011;13676;50.168;8.568;2023-08-17T04:38:20;1.00;;;0.90;;
25846;SDS011;13676;50.168;8.568;2023-08-17T04:40:45;1.05;;;0.95;;
25846;SDS011;13676;50.168;8.568;2023-08-17T04:43:11;2.05;;;0.82;;
25846;SDS011;13676;50.168;8.568;2023-08-17T04:45:36;0.85;;;0.82;;
25846;SDS011;13676;50.168;8.568;2023-08-17T04:48:01;1.27;;;1.00;;
25846;SDS011;13676;50.168;8.568;2023-08-17T04:50:27;1.55;;;1.08;;
25846;SDS011;13676;50.168;8.568;2023-08-17T04:52:52;1.40;;;1.00;;
25846;SDS011;13676;50.168;8.568;2023-08-17T04:55:18;1.38;;;1.08;;
25846;SDS011;13676;50.168;8.568;2023-08-17T04:57:44;2.83;;;1.02;;
25846;SDS011;13676;50.168;8.568;2023-08-17T05:00:10;1.15;;;1.00;;
25846;SDS011;13676;50.168;8.568;2023-08-17T05:02:36;1.83;;;0.90;;
25846;SDS011;13676;50.168;8.568;2023-08-17T05:05:04;4.22;;;1.15;;
25846;SDS011;13676;50.168;8.568;2023-08-17T05:07:31;5.03;;;1.30;;
25846;SDS011;13676;50.168;8.568;2023-08-17T05:12:24;2.78;;;1.70;;
25846;SDS011;13676;50.168;8.568;2023-08-17T05:14:51;3.28;;;1.25;;
25846;SDS011;13676;50.168;8.568;2023-08-17T05:17:16;2.95;;;1.48;;
25846;SDS011;13676;50.168;8.568;2023-08-17T05:19:42;3.47;;;1.15;;
25846;SDS011;13676;50.168;8.568;2023-08-17T05:22:11;4.10;;;1.10;;
25846;SDS011;13676;50.168;8.568;2023-08-17T05:24:37;1.48;;;1.10;;
25846;SDS011;13676;50.168;8.568;2023-08-17T05:27:03;1.58;;;1.35;;
25846;SDS011;13676;50.168;8.568;2023-08-17T05:29:29;2.00;;;1.23;;
25846;SDS011;13676;50.168;8.568;2023-08-17T05:31:55;2.30;;;1.60;;
25846;SDS011;13676;50.168;8.568;2023-08-17T05:34:22;2.30;;;1.00;;
25846;SDS011;13676;50.168;8.568;2023-08-17T05:36:48;2.30;;;0.80;;
25846;SDS011;13676;50.168;8.568;2023-08-17T05:39:14;4.10;;;1.20;;
25846;SDS011;13676;50.168;8.568;2023-08-17T05:41:40;3.42;;;1.63;;
25846;SDS011;13676;50.168;8.568;2023-08-17T05:44:06;1.20;;;1.10;;
25846;SDS011;13676;50.168;8.568;2023-08-17T06:10:06;3.00;;;2.13;;
25846;SDS011;13676;50.168;8.568;2023-08-17T06:12:32;2.55;;;1.58;;
25846;SDS011;13676;50.168;8.568;2023-08-17T06:14:57;2.10;;;1.38;;
25846;SDS011;13676;50.168;8.568;2023-08-17T06:17:23;2.20;;;1.40;;
25846;SDS011;13676;50.168;8.568;2023-08-17T06:19:48;5.32;;;3.28;;
25846;SDS011;13676;50.168;8.568;2023-08-17T06:22:16;6.38;;;3.72;;
25846;SDS011;13676;50.168;8.568;2023-08-17T06:24:42;3.17;;;2.88;;
25846;SDS011;13676;50.168;8.568;2023-08-17T06:27:08;4.15;;;2.90;;
25846;SDS011;13676;50.168;8.568;2023-08-17T06:29:33;4.60;;;2.53;;
25846;SDS011;13676;50.168;8.568;2023-08-17T06:31:58;2.70;;;2.40;;
25846;SDS011;13676;50.168;8.568;2023-08-17T06:34:23;3.08;;;2.03;;
25846;SDS011;13676;50.168;8.568;2023-08-17T06:36:56;2.13;;;1.90;;
25846;SDS011;13676;50.168;8.568;2023-08-17T06:39:26;2.97;;;2.13;;
25846;SDS011;13676;50.168;8.568;2023-08-17T06:41:52;2.72;;;2.53;;
25846;SDS011;13676;50.168;8.568;2023-08-17T06:44:19;2.63;;;2.42;;
25846;SDS011;13676;50.168;8.568;2023-08-17T06:46:44;5.55;;;3.83;;
25846;SDS011;13676;50.168;8.568;2023-08-17T06:49:10;5.15;;;3.55;;
25846;SDS011;13676;50.168;8.568;2023-08-17T06:51:38;9.00;;;4.00;;
25846;SDS011;13676;50.168;8.568;2023-08-17T06:54:07;4.22;;;3.03;;
25846;SDS011;13676;50.168;8.568;2023-08-17T06:56:32;3.58;;;3.28;;
25846;SDS011;13676;50.168;8.568;2023-08-17T06:58:58;5.20;;;4.68;;
25846;SDS011;13676;50.168;8.568;2023-08-17T07:01:23;4.55;;;3.80;;
25846;SDS011;13676;50.168;8.568;2023-08-17T07:03:49;4.30;;;3.90;;
25846;SDS011;13676;50.168;8.568;2023-08-17T07:06:14;7.00;;;4.88;;
25846;SDS011;13676;50.168;8.568;2023-08-17T07:08:39;4.10;;;3.17;;
25846;SDS011;13676;50.168;8.568;2023-08-17T07:11:05;4.50;;;4.10;;
25846;SDS011;13676;50.168;8.568;2023-08-17T07:13:33;4.68;;;4.28;;
25846;SDS011;13676;50.168;8.568;2023-08-17T07:15:59;3.70;;;3.40;;
25846;SDS011;13676;50.168;8.568;2023-08-17T07:18:24;4.80;;;4.35;;
25846;SDS011;13676;50.168;8.568;2023-08-17T07:20:49;5.10;;;4.15;;
25846;SDS011;13676;50.168;8.568;2023-08-17T07:23:15;4.70;;;4.30;;
25846;SDS011;13676;50.168;8.568;2023-08-17T07:25:40;3.28;;;2.97;;
25846;SDS011;13676;50.168;8.568;2023-08-17T07:28:07;4.10;;;3.53;;
25846;SDS011;13676;50.168;8.568;2023-08-17T07:30:32;3.95;;;2.90;;
25846;SDS011;13676;50.168;8.568;2023-08-17T07:32:57;2.42;;;2.22;;
25846;SDS011;13676;50.168;8.568;2023-08-17T07:35:23;3.35;;;2.20;;
25846;SDS011;13676;50.168;8.568;2023-08-17T07:37:49;3.90;;;3.10;;
25846;SDS011;13676;50.168;8.568;2023-08-17T07:40:14;3.45;;;2.40;;
25846;SDS011;13676;50.168;8.568;2023-08-17T07:42:40;2.35;;;2.15;;
25846;SDS011;13676;50.168;8.568;2023-08-17T07:45:05;2.72;;;2.53;;
25846;SDS011;13676;50.168;8.568;2023-08-17T07:47:33;4.20;;;3.85;;
25846;SDS011;13676;50.168;8.568;2023-08-17T07:50:00;3.55;;;2.97;;
25846;SDS011;13676;50.168;8.568;2023-08-17T07:52:26;3.22;;;2.70;;
25846;SDS011;13676;50.168;8.568;2023-08-17T07:54:51;3.08;;;2.08;;
25846;SDS011;13676;50.168;8.568;2023-08-17T07:57:16;2.78;;;1.60;;
25846;SDS011;13676;50.168;8.568;2023-08-17T07:59:43;1.75;;;1.50;;
25846;SDS011;13676;50.168;8.568;2023-08-17T08:02:09;1.42;;;1.33;;
25846;SDS011;13676;50.168;8.568;2023-08-17T08:04:34;2.05;;;1.85;;
25846;SDS011;13676;50.168;8.568;2023-08-17T08:06:59;1.58;;;1.48;;
25846;SDS011;13676;50.168;8.568;2023-08-17T08:09:25;1.58;;;1.48;;
25846;SDS011;13676;50.168;8.568;2023-08-17T08:11:50;3.00;;;1.83;;
25846;SDS011;13676;50.168;8.568;2023-08-17T08:14:16;1.58;;;1.48;;
25846;SDS011;13676;50.168;8.568;2023-08-17T08:16:42;2.67;;;2.15;;
25846;SDS011;13676;50.168;8.568;2023-08-17T08:19:07;6.30;;;2.50;;
25846;SDS011;13676;50.168;8.568;2023-08-17T08:21:32;3.00;;;1.70;;
25846;SDS011;13676;50.168;8.568;2023-08-17T08:23:58;4.72;;;1.90;;
25846;SDS011;13676;50.168;8.568;2023-08-17T08:26:23;2.58;;;1.58;;
25846;SDS011;13676;50.168;8.568;2023-08-17T08:28:49;3.95;;;2.75;;
25846;SDS011;13676;50.168;8.568;2023-08-17T08:31:15;2.45;;;1.63;;
25846;SDS011;13676;50.168;8.568;2023-08-17T08:33:42;2.42;;;1.50;;
25846;SDS011;13676;50.168;8.568;2023-08-17T08:36:08;2.45;;;1.13;;
25846;SDS011;13676;50.168;8.568;2023-08-17T08:38:33;1.17;;;1.08;;
25846;SDS011;13676;50.168;8.568;2023-08-17T08:40:59;1.35;;;1.25;;
25846;SDS011;13676;50.168;8.568;2023-08-17T08:43:24;1.83;;;1.70;;
25846;SDS011;13676;50.168;8.568;2023-08-17T08:45:49;2.63;;;1.40;;
25846;SDS011;13676;50.168;8.568;2023-08-17T08:48:16;2.40;;;1.20;;
25846;SDS011;13676;50.168;8.568;2023-08-17T08:50:43;1.20;;;1.10;;
25846;SDS011;13676;50.168;8.568;2023-08-17T08:53:14;1.95;;;1.08;;
25846;SDS011;13676;50.168;8.568;2023-08-17T08:55:47;2.25;;;1.40;;
25846;SDS011;13676;50.168;8.568;2023-08-17T08:58:17;3.75;;;1.35;;
25846;SDS011;13676;50.168;8.568;2023-08-17T09:00:45;3.45;;;1.65;;
25846;SDS011;13676;50.168;8.568;2023-08-17T09:03:11;1.65;;;1.20;;
25846;SDS011;13676;50.168;8.568;2023-08-17T09:05:37;2.13;;;1.35;;
25846;SDS011;13676;50.168;8.568;2023-08-17T09:08:02;2.50;;;1.23;;
25846;SDS011;13676;50.168;8.568;2023-08-17T09:10:28;1.35;;;1.00;;
25846;SDS011;13676;50.168;8.568;2023-08-17T09:12:54;1.77;;;1.10;;
25846;SDS011;13676;50.168;8.568;2023-08-17T09:15:19;1.33;;;1.05;;
25846;SDS011;13676;50.168;8.568;2023-08-17T09:17:45;0.80;;;0.80;;
25846;SDS011;13676;50.168;8.568;2023-08-17T09:20:17;2.97;;;1.30;;
25846;SDS011;13676;50.168;8.568;2023-08-17T09:23:02;1.27;;;0.80;;
25846;SDS011;13676;50.168;8.568;2023-08-17T09:25:29;1.35;;;1.00;;
25846;SDS011;13676;50.168;8.568;2023-08-17T09:30:22;2.42;;;1.40;;
25846;SDS011;13676;50.168;8.568;2023-08-17T09:32:47;2.17;;;1.33;;
25846;SDS011;13676;50.168;8.568;2023-08-17T09:35:14;2.78;;;1.00;;
25846;SDS011;13676;50.168;8.568;2023-08-17T09:37:40;2.95;;;1.40;;
25846;SDS011;13676;50.168;8.568;2023-08-17T09:40:05;1.65;;;1.10;;
25846;SDS011;13676;50.168;8.568;2023-08-17T09:42:34;4.03;;;1.48;;
25846;SDS011;13676;50.168;8.568;2023-08-17T09:44:59;1.77;;;1.10;;
25846;SDS011;13676;50.168;8.568;2023-08-17T09:47:26;1.08;;;0.98;;
25846;SDS011;13676;50.168;8.568;2023-08-17T09:49:52;1.35;;;1.20;;
25846;SDS011;13676;50.168;8.568;2023-08-17T09:52:19;1.33;;;1.10;;
25846;SDS011;13676;50.168;8.568;2023-08-17T09:54:45;1.98;;;1.45;;
25846;SDS011;13676;50.168;8.568;2023-08-17T09:57:14;1.85;;;0.90;;
25846;SDS011;13676;50.168;8.568;2023-08-17T09:59:40;2.40;;;1.42;;
25846;SDS011;13676;50.168;8.568;2023-08-17T10:02:12;2.00;;;1.45;;
25846;SDS011;13676;50.168;8.568;2023-08-17T10:04:49;2.00;;;1.40;;
25846;SDS011;13676;50.168;8.568;2023-08-17T10:07:16;4.47;;;1.42;;
25846;SDS011;13676;50.168;8.568;2023-08-17T10:09:44;2.30;;;1.38;;
25846;SDS011;13676;50.168;8.568;2023-08-17T10:12:15;2.80;;;1.20;;
25846;SDS011;13676;50.168;8.568;2023-08-17T10:14:42;1.75;;;1.42;;
25846;SDS011;13676;50.168;8.568;2023-08-17T10:17:12;1.80;;;1.30;;
25846;SDS011;13676;50.168;8.568;2023-08-17T10:19:43;1.63;;;1.02;;
25846;SDS011;13676;50.168;8.568;2023-08-17T10:24:44;1.10;;;1.00;;
25846;SDS011;13676;50.168;8.568;2023-08-17T10:27:10;1.75;;;1.40;;
25846;SDS011;13676;50.168;8.568;2023-08-17T10:29:38;1.85;;;1.00;;
25846;SDS011;13676;50.168;8.568;2023-08-17T10:32:04;1.10;;;1.00;;
25846;SDS011;13676;50.168;8.568;2023-08-17T10:34:31;1.20;;;1.10;;
25846;SDS011;13676;50.168;8.568;2023-08-17T10:36:56;1.42;;;1.00;;
25846;SDS011;13676;50.168;8.568;2023-08-17T10:41:57;2.13;;;1.00;;
25846;SDS011;13676;50.168;8.568;2023-08-17T10:47:29;2.50;;;1.50;;
25846;SDS011;13676;50.168;8.568;2023-08-17T10:50:19;2.58;;;1.42;;
25846;SDS011;13676;50.168;8.568;2023-08-17T10:52:49;1.90;;;1.30;;
25846;SDS011;13676;50.168;8.568;2023-08-17T10:55:15;2.30;;;1.13;;
25846;SDS011;13676;50.168;8.568;2023-08-17T10:57:42;1.15;;;1.05;;
25846;SDS011;13676;50.168;8.568;2023-08-17T11:00:19;1.33;;;1.15;;
25846;SDS011;13676;50.168;8.568;2023-08-17T11:02:55;1.00;;;0.90;;
25846;SDS011;13676;50.168;8.568;2023-08-17T11:08:31;2.80;;;1.20;;
25846;SDS011;13676;50.168;8.568;2023-08-17T11:13:28;2.13;;;1.38;;
25846;SDS011;13676;50.168;8.568;2023-08-17T11:15:55;2.22;;;1.25;;
25846;SDS011;13676;50.168;8.568;2023-08-17T11:18:20;1.20;;;0.95;;
25846;SDS011;13676;50.168;8.568;2023-08-17T11:20:48;3.85;;;1.13;;
25846;SDS011;13676;50.168;8.568;2023-08-17T11:23:14;1.35;;;1.20;;
25846;SDS011;13676;50.168;8.568;2023-08-17T11:25:41;1.00;;;0.90;;
25846;SDS011;13676;50.168;8.568;2023-08-17T11:28:07;2.63;;;1.00;;
25846;SDS011;13676;50.168;8.568;2023-08-17T11:30:36;1.55;;;1.13;;
25846;SDS011;13676;50.168;8.568;2023-08-17T11:33:04;1.83;;;1.25;;
25846;SDS011;13676;50.168;8.568;2023-08-17T11:35:30;2.22;;;1.60;;
25846;SDS011;13676;50.168;8.568;2023-08-17T11:37:56;1.30;;;1.20;;
25846;SDS011;13676;50.168;8.568;2023-08-17T11:40:22;2.95;;;1.50;;
25846;SDS011;13676;50.168;8.568;2023-08-17T11:42:47;1.65;;;1.20;;
25846;SDS011;13676;50.168;8.568;2023-08-17T11:45:13;1.67;;;0.88;;
25846;SDS011;13676;50.168;8.568;2023-08-17T11:47:39;1.20;;;1.08;;
25846;SDS011;13676;50.168;8.568;2023-08-17T11:50:08;1.42;;;0.98;;
25846;SDS011;13676;50.168;8.568;2023-08-17T11:52:35;3.45;;;1.30;;
25846;SDS011;13676;50.168;8.568;2023-08-17T11:55:06;1.20;;;1.00;;
25846;SDS011;13676;50.168;8.568;2023-08-17T11:57:34;1.25;;;1.00;;
25846;SDS011;13676;50.168;8.568;2023-08-17T12:00:02;1.73;;;1.10;;
25846;SDS011;13676;50.168;8.568;2023-08-17T12:02:29;3.28;;;1.30;;
25846;SDS011;13676;50.168;8.568;2023-08-17T12:04:55;3.23;;;1.50;;
25846;SDS011;13676;50.168;8.568;2023-08-17T12:09:50;2.08;;;1.23;;
25846;SDS011;13676;50.168;8.568;2023-08-17T12:14:46;1.73;;;1.10;;
25846;SDS011;13676;50.168;8.568;2023-08-17T12:17:15;3.53;;;1.45;;
25846;SDS011;13676;50.168;8.568;2023-08-17T12:19:44;2.45;;;1.38;;
25846;SDS011;13676;50.168;8.568;2023-08-17T12:22:14;2.83;;;1.20;;
25846;SDS011;13676;50.168;8.568;2023-08-17T12:24:39;1.42;;;1.30;;
25846;SDS011;13676;50.168;8.568;2023-08-17T12:27:05;1.52;;;1.13;;
25846;SDS011;13676;50.168;8.568;2023-08-17T12:29:31;1.05;;;0.95;;
25846;SDS011;13676;50.168;8.568;2023-08-17T12:31:56;0.90;;;0.80;;
25846;SDS011;13676;50.168;8.568;2023-08-17T12:34:23;4.90;;;1.50;;
25846;SDS011;13676;50.168;8.568;2023-08-17T12:36:48;1.27;;;1.17;;
25846;SDS011;13676;50.168;8.568;2023-08-17T12:39:14;4.63;;;1.48;;
25846;SDS011;13676;50.168;8.568;2023-08-17T12:41:40;3.65;;;1.30;;
25846;SDS011;13676;50.168;8.568;2023-08-17T12:44:05;2.90;;;1.10;;
25846;SDS011;13676;50.168;8.568;2023-08-17T12:46:30;1.13;;;1.00;;
25846;SDS011;13676;50.168;8.568;2023-08-17T12:48:58;1.10;;;1.00;;
25846;SDS011;13676;50.168;8.568;2023-08-17T12:51:24;1.80;;;1.40;;
25846;SDS011;13676;50.168;8.568;2023-08-17T12:53:49;2.10;;;1.10;;
25846;SDS011;13676;50.168;8.568;2023-08-17T12:56:15;1.10;;;0.80;;
25846;SDS011;13676;50.168;8.568;2023-08-17T12:58:40;1.98;;;1.13;;
25846;SDS011;13676;50.168;8.568;2023-08-17T13:01:05;1.55;;;0.88;;
25846;SDS011;13676;50.168;8.568;2023-08-17T13:03:31;1.65;;;0.93;;
25846;SDS011;13676;50.168;8.568;2023-08-17T13:05:56;1.58;;;1.00;;
25846;SDS011;13676;50.168;8.568;2023-08-17T13:08:22;1.80;;;1.10;;
25846;SDS011;13676;50.168;8.568;2023-08-17T13:10:49;4.05;;;1.13;;
25846;SDS011;13676;50.168;8.568;2023-08-17T13:13:14;1.50;;;0.80;;
25846;SDS011;13676;50.168;8.568;2023-08-17T13:15:39;2.15;;;1.20;;
25846;SDS011;13676;50.168;8.568;2023-08-17T13:18:06;1.90;;;0.93;;
25846;SDS011;13676;50.168;8.568;2023-08-17T13:20:32;3.60;;;1.00;;
25846;SDS011;13676;50.168;8.568;2023-08-17T13:23:00;1.90;;;0.98;;
25846;SDS011;13676;50.168;8.568;2023-08-17T13:25:26;2.95;;;1.10;;
25846;SDS011;13676;50.168;8.568;2023-08-17T13:27:51;2.13;;;1.20;;
25846;SDS011;13676;50.168;8.568;2023-08-17T13:30:17;1.27;;;0.90;;
25846;SDS011;13676;50.168;8.568;2023-08-17T13:32:42;2.35;;;1.00;;
25846;SDS011;13676;50.168;8.568;2023-08-17T13:35:07;1.30;;;0.75;;
25846;SDS011;13676;50.168;8.568;2023-08-17T13:37:33;1.50;;;0.70;;
25846;SDS011;13676;50.168;8.568;2023-08-17T13:39:59;1.92;;;0.85;;
25846;SDS011;13676;50.168;8.568;2023-08-17T13:42:26;1.10;;;0.80;;
25846;SDS011;13676;50.168;8.568;2023-08-17T13:44:51;1.45;;;0.88;;
25846;SDS011;13676;50.168;8.568;2023-08-17T13:47:17;0.80;;;0.80;;
25846;SDS011;13676;50.168;8.568;2023-08-17T13:49:43;1.05;;;0.68;;
25846;SDS011;13676;50.168;8.568;2023-08-17T13:52:10;2.42;;;1.23;;
25846;SDS011;13676;50.168;8.568;2023-08-17T13:54:35;1.35;;;0.88;;
25846;SDS011;13676;50.168;8.568;2023-08-17T13:57:02;0.70;;;0.70;;
25846;SDS011;13676;50.168;8.568;2023-08-17T13:59:30;1.95;;;1.08;;
25846;SDS011;13676;50.168;8.568;2023-08-17T14:01:55;1.02;;;0.75;;
25846;SDS011;13676;50.168;8.568;2023-08-17T14:04:21;1.10;;;0.90;;
25846;SDS011;13676;50.168;8.568;2023-08-17T14:06:47;0.60;;;0.60;;
25846;SDS011;13676;50.168;8.568;2023-08-17T14:09:13;0.70;;;0.60;;
25846;SDS011;13676;50.168;8.568;2023-08-17T14:11:38;0.90;;;0.80;;
25846;SDS011;13676;50.168;8.568;2023-08-17T14:14:04;3.05;;;1.30;;
25846;SDS011;13676;50.168;8.568;2023-08-17T14:16:30;1.52;;;1.10;;
25846;SDS011;13676;50.168;8.568;2023-08-17T14:18:56;1.33;;;0.93;;
25846;SDS011;13676;50.168;8.568;2023-08-17T14:21:21;1.92;;;1.20;;
25846;SDS011;13676;50.168;8.568;2023-08-17T14:23:47;2.42;;;1.17;;
25846;SDS011;13676;50.168;8.568;2023-08-17T14:26:12;1.55;;;1.10;;
25846;SDS011;13676;50.168;8.568;2023-08-17T14:28:37;1.83;;;0.90;;
25846;SDS011;13676;50.168;8.568;2023-08-17T14:31:03;1.10;;;0.90;;
25846;SDS011;13676;50.168;8.568;2023-08-17T14:33:28;0.77;;;0.70;;
25846;SDS011;13676;50.168;8.568;2023-08-17T14:35:54;2.35;;;1.20;;
25846;SDS011;13676;50.168;8.568;2023-08-17T14:38:19;0.77;;;0.77;;
25846;SDS011;13676;50.168;8.568;2023-08-17T14:40:45;1.80;;;1.08;;
25846;SDS011;13676;50.168;8.568;2023-08-17T14:43:12;3.97;;;1.30;;
25846;SDS011;13676;50.168;8.568;2023-08-17T14:45:39;1.50;;;1.25;;
25846;SDS011;13676;50.168;8.568;2023-08-17T14:48:05;1.13;;;1.02;;
25846;SDS011;13676;50.168;8.568;2023-08-17T14:50:31;1.90;;;1.23;;
25846;SDS011;13676;50.168;8.568;2023-08-17T14:52:56;1.75;;;1.13;;
25846;SDS011;13676;50.168;8.568;2023-08-17T14:55:22;1.50;;;1.20;;
25846;SDS011;13676;50.168;8.568;2023-08-17T14:57:48;2.10;;;1.25;;
25846;SDS011;13676;50.168;8.568;2023-08-17T15:00:13;2.65;;;1.10;;
25846;SDS011;13676;50.168;8.568;2023-08-17T15:02:39;3.63;;;1.80;;
25846;SDS011;13676;50.168;8.568;2023-08-17T15:05:05;2.47;;;1.60;;
25846;SDS011;13676;50.168;8.568;2023-08-17T15:07:31;2.35;;;1.98;;
25846;SDS011;13676;50.168;8.568;2023-08-17T15:09:58;1.92;;;1.40;;
25846;SDS011;13676;50.168;8.568;2023-08-17T15:12:23;2.22;;;1.40;;
25846;SDS011;13676;50.168;8.568;2023-08-17T15:14:48;3.90;;;1.15;;
25846;SDS011;13676;50.168;8.568;2023-08-17T15:17:14;1.65;;;1.40;;
25846;SDS011;13676;50.168;8.568;2023-08-17T15:19:39;2.33;;;1.45;;
25846;SDS011;13676;50.168;8.568;2023-08-17T15:22:05;5.13;;;1.77;;
25846;SDS011;13676;50.168;8.568;2023-08-17T15:24:31;1.73;;;1.33;;
25846;SDS011;13676;50.168;8.568;2023-08-17T15:26:56;2.25;;;1.30;;
25846;SDS011;13676;50.168;8.568;2023-08-17T15:29:23;2.17;;;1.50;;
25846;SDS011;13676;50.168;8.568;2023-08-17T15:31:48;1.58;;;1.48;;
25846;SDS011;13676;50.168;8.568;2023-08-17T15:34:13;3.50;;;1.60;;
25846;SDS011;13676;50.168;8.568;2023-08-17T15:36:40;5.63;;;1.65;;
25846;SDS011;13676;50.168;8.568;2023-08-17T15:39:07;1.83;;;1.60;;
25846;SDS011;13676;50.168;8.568;2023-08-17T15:41:33;1.58;;;1.40;;
25846;SDS011;13676;50.168;8.568;2023-08-17T15:43:59;2.58;;;1.50;;